Time;durP1;ratioP1;P1;durP2;ratioP2;P2;SDS_P1;SDS_P2;PMS_P1;PMS_P2;Temp;Humidity;BMP_temperature;BMP_pressure;BME280_temperature;BME280_humidity;BME280_pressure;Samples;Min_cycle;Max_cycle;Signal;HPM_P1;HPM_P2
2022/12/28 00:01:03;;;;;;;35.20;18.27;;;5.40;99.90;;;;;;4976520;28;20027;-71
2022/12/28 00:03:29;;;;;;;40.35;17.80;;;5.40;99.90;;;;;;4987527;28;20065;-71
2022/12/28 00:05:54;;;;;;;50.35;20.55;;;5.40;99.90;;;;;;4995560;28;20498;-72
2022/12/28 00:08:22;;;;;;;42.60;18.02;;;5.40;99.90;;;;;;4995432;28;20036;-71
2022/12/28 00:10:48;;;;;;;45.92;17.95;;;5.40;99.90;;;;;;4994618;28;20045;-72
2022/12/28 00:13:13;;;;;;;42.90;17.88;;;5.40;99.90;;;;;;4994502;28;20441;-72
2022/12/28 00:15:39;;;;;;;45.83;18.73;;;5.40;99.90;;;;;;4989138;28;20482;-72
2022/12/28 00:18:04;;;;;;;37.45;17.23;;;5.40;99.90;;;;;;4997494;28;20030;-73
2022/12/28 00:20:30;;;;;;;38.25;16.45;;;5.40;99.90;;;;;;5002801;28;20033;-71
2022/12/28 00:22:55;;;;;;;34.88;16.58;;;5.40;99.90;;;;;;4995008;28;20022;-72
2022/12/28 00:25:21;;;;;;;30.40;16.42;;;5.40;99.90;;;;;;4995048;28;20081;-71
2022/12/28 00:27:46;;;;;;;34.60;17.75;;;5.40;99.90;;;;;;4994535;28;20030;-72
2022/12/28 00:30:12;;;;;;;35.05;18.52;;;5.40;99.90;;;;;;4994796;28;20022;-71
2022/12/28 00:32:38;;;;;;;41.58;16.80;;;5.40;99.90;;;;;;4993877;28;20513;-72
2022/12/28 00:35:04;;;;;;;40.90;16.17;;;5.40;99.90;;;;;;4994182;28;20552;-71
2022/12/28 00:37:31;;;;;;;32.58;17.23;;;5.40;99.90;;;;;;4994625;28;20529;-72
2022/12/28 00:39:57;;;;;;;43.03;17.23;;;5.40;99.90;;;;;;4994902;28;20030;-71
2022/12/28 00:42:23;;;;;;;43.22;18.52;;;5.40;99.90;;;;;;4994836;28;20037;-71
2022/12/28 00:44:48;;;;;;;34.40;17.05;;;5.40;99.90;;;;;;4994522;28;20030;-72
2022/12/28 00:47:14;;;;;;;40.15;17.67;;;5.40;99.90;;;;;;4994451;28;20042;-71
2022/12/28 00:49:39;;;;;;;35.55;16.23;;;5.40;99.90;;;;;;5007640;28;20030;-71
2022/12/28 00:52:05;;;;;;;35.55;16.75;;;5.40;99.90;;;;;;4994686;28;20018;-71
2022/12/28 00:54:30;;;;;;;40.28;16.52;;;5.40;99.90;;;;;;4994673;28;20054;-71
2022/12/28 00:56:56;;;;;;;37.53;15.93;;;5.40;99.90;;;;;;4992969;28;20402;-71
2022/12/28 00:59:21;;;;;;;36.83;16.85;;;5.40;99.90;;;;;;4979091;28;20025;-71
2022/12/28 01:01:47;;;;;;;32.78;14.07;;;5.40;99.90;;;;;;4991560;28;20038;-71
2022/12/28 01:04:12;;;;;;;52.50;14.20;;;5.40;99.90;;;;;;4990835;28;20026;-71
2022/12/28 01:06:38;;;;;;;42.25;13.15;;;5.40;99.90;;;;;;4993962;28;20026;-71
2022/12/28 01:09:04;;;;;;;44.50;14.20;;;5.40;99.90;;;;;;4992896;28;20057;-71
2022/12/28 01:11:30;;;;;;;37.05;12.38;;;5.40;99.90;;;;;;4994876;28;20030;-71
2022/12/28 01:13:58;;;;;;;40.72;13.23;;;5.40;99.90;;;;;;4994713;28;20026;-71
2022/12/28 01:16:29;;;;;;;29.27;11.63;;;5.40;99.90;;;;;;4993086;28;20026;-71
2022/12/28 01:18:58;;;;;;;32.65;11.70;;;5.40;99.90;;;;;;4991437;28;20034;-71
2022/12/28 01:21:26;;;;;;;27.48;11.60;;;5.40;99.90;;;;;;4994629;28;20038;-71
2022/12/28 01:23:55;;;;;;;26.17;10.57;;;5.40;99.90;;;;;;4993416;28;20053;-71
2022/12/28 01:26:20;;;;;;;24.50;10.82;;;5.40;99.90;;;;;;4994100;28;20501;-71
2022/12/28 01:28:46;;;;;;;37.75;12.07;;;5.30;99.90;;;;;;4994294;28;20167;-71
2022/12/28 01:31:14;;;;;;;27.50;10.30;;;5.30;99.90;;;;;;4994345;28;20018;-71
2022/12/28 01:33:40;;;;;;;33.33;10.30;;;5.30;99.90;;;;;;4994502;28;20023;-71
2022/12/28 01:36:12;;;;;;;36.42;11.02;;;5.20;99.90;;;;;;4995567;28;20038;-71
2022/12/28 01:38:38;;;;;;;26.48;10.82;;;5.20;99.90;;;;;;4999753;28;20033;-71
2022/12/28 01:41:08;;;;;;;30.80;11.63;;;5.20;99.90;;;;;;4994554;28;20026;-70
2022/12/28 01:43:43;;;;;;;29.15;10.93;;;5.20;99.90;;;;;;4994124;28;20026;-71
2022/12/28 01:46:16;;;;;;;26.20;10.68;;;5.20;99.90;;;;;;4994455;28;20026;-71
2022/12/28 01:49:00;;;;;;;37.70;11.10;;;5.10;99.90;;;;;;4994027;28;20367;-71
2022/12/28 01:51:27;;;;;;;;;;;5.10;99.90;;;;;;4994590;28;20097;-72
2022/12/28 01:53:55;;;;;;;26.35;10.55;;;5.10;99.90;;;;;;4998183;28;20284;-71
2022/12/28 01:56:22;;;;;;;28.95;8.82;;;5.00;99.90;;;;;;4994118;28;20068;-71
2022/12/28 01:58:48;;;;;;;37.17;10.50;;;5.00;99.90;;;;;;4993289;28;20383;-71
2022/12/28 02:01:14;;;;;;;24.45;9.23;;;5.00;99.90;;;;;;4994098;28;20035;-71
2022/12/28 02:03:40;;;;;;;29.88;9.63;;;5.00;99.90;;;;;;4994408;28;20049;-71
2022/12/28 02:06:09;;;;;;;24.88;9.30;;;4.90;99.90;;;;;;4992286;28;20029;-71
2022/12/28 02:08:40;;;;;;;25.27;8.80;;;5.00;99.90;;;;;;4992859;28;20434;-71
2022/12/28 02:11:07;;;;;;;23.75;9.40;;;4.90;99.90;;;;;;4994391;28;20027;-71
2022/12/28 02:13:33;;;;;;;25.20;9.80;;;4.90;99.90;;;;;;4994000;28;20033;-71
2022/12/28 02:15:59;;;;;;;34.45;10.60;;;4.90;99.90;;;;;;4992977;28;20398;-71
2022/12/28 02:18:25;;;;;;;27.95;8.85;;;4.90;99.90;;;;;;4992729;28;20026;-71
2022/12/28 02:21:41;;;;;;;29.90;8.48;;;4.90;99.90;;;;;;4993666;28;20022;-71
2022/12/28 02:24:34;;;;;;;30.13;8.80;;;4.90;99.90;;;;;;4945697;28;20069;-71
2022/12/28 02:27:31;;;;;;;26.60;8.10;;;4.90;99.90;;;;;;4997684;28;20496;-71
2022/12/28 02:30:07;;;;;;;30.73;9.63;;;4.90;99.90;;;;;;4997371;28;20457;-71
2022/12/28 02:33:10;;;;;;;31.02;11.57;;;4.90;99.90;;;;;;4996581;28;20406;-72
2022/12/28 02:35:56;;;;;;;21.23;9.30;;;4.80;99.90;;;;;;4995769;28;20022;-71
2022/12/28 02:38:43;;;;;;;17.70;7.85;;;4.80;99.90;;;;;;4996093;28;20564;-71
2022/12/28 02:41:12;;;;;;;25.08;8.25;;;4.80;99.90;;;;;;4995044;28;20041;-72
2022/12/28 02:43:38;;;;;;;25.15;9.35;;;4.80;99.90;;;;;;4996063;28;20041;-71
2022/12/28 02:52:17;;;;;;;27.35;9.00;;;4.80;99.90;;;;;;4997101;28;20057;-72
2022/12/28 02:58:11;;;;;;;21.48;8.52;;;4.80;99.90;;;;;;4978556;28;20033;-71
2022/12/28 03:00:53;;;;;;;34.60;10.27;;;4.70;99.90;;;;;;4996604;28;20022;-72
2022/12/28 03:03:38;;;;;;;27.15;10.45;;;4.70;99.90;;;;;;4995318;28;20035;-72
2022/12/28 03:09:02;;;;;;;25.42;9.38;;;4.80;99.90;;;;;;4983243;28;20030;-72
2022/12/28 03:11:41;;;;;;;33.83;10.55;;;4.80;99.90;;;;;;4987330;28;20030;-72
2022/12/28 03:14:12;;;;;;;15.63;8.38;;;4.70;99.90;;;;;;4996353;28;20027;-72
2022/12/28 03:31:07;;;;;;;20.33;9.38;;;4.70;99.90;;;;;;4983056;28;20093;-72
2022/12/28 03:33:41;;;;;;;25.02;10.20;;;4.80;99.90;;;;;;4976970;28;20037;-71
2022/12/28 03:36:29;;;;;;;17.70;9.15;;;4.80;99.90;;;;;;4991572;28;20034;-72
2022/12/28 03:39:15;;;;;;;21.10;10.18;;;4.70;99.90;;;;;;4995892;28;20483;-72
2022/12/28 03:41:49;;;;;;;29.38;11.75;;;4.70;99.90;;;;;;4993892;28;20041;-73
2022/12/28 03:44:25;;;;;;;26.73;9.50;;;4.70;99.90;;;;;;4976282;28;20475;-72
2022/12/28 03:47:08;;;;;;;28.67;10.40;;;4.80;99.90;;;;;;4995533;28;20379;-73
2022/12/28 03:49:34;;;;;;;30.75;10.73;;;4.70;99.90;;;;;;4987376;28;20487;-72
2022/12/28 03:52:00;;;;;;;24.77;10.30;;;4.80;99.90;;;;;;4976543;28;20054;-72
2022/12/28 03:54:26;;;;;;;27.00;10.20;;;4.70;99.90;;;;;;4998565;28;20026;-72
2022/12/28 03:56:52;;;;;;;28.05;11.43;;;4.80;99.90;;;;;;4993978;28;20490;-72
2022/12/28 03:59:18;;;;;;;30.05;10.88;;;4.70;99.90;;;;;;4980326;28;20023;-72
2022/12/28 04:01:44;;;;;;;25.63;11.70;;;4.80;99.90;;;;;;4978180;28;20821;-72
2022/12/28 04:04:09;;;;;;;22.98;12.07;;;4.80;99.90;;;;;;4995854;28;20023;-72
2022/12/28 04:06:35;;;;;;;24.95;11.13;;;4.80;99.90;;;;;;4995626;28;20030;-72
2022/12/28 04:09:01;;;;;;;20.67;11.32;;;4.80;99.90;;;;;;4982307;28;20534;-72
2022/12/28 04:11:26;;;;;;;19.52;11.18;;;4.80;99.90;;;;;;4986391;28;20019;-71
2022/12/28 04:13:52;;;;;;;26.75;11.55;;;4.80;99.90;;;;;;4995476;28;20026;-71
2022/12/28 04:16:17;;;;;;;23.95;11.48;;;4.80;99.90;;;;;;4994788;28;20062;-71
2022/12/28 04:18:43;;;;;;;27.00;11.80;;;4.80;99.90;;;;;;4991760;28;20034;-72
2022/12/28 04:21:13;;;;;;;20.33;12.43;;;4.70;99.90;;;;;;4990236;28;20444;-72
2022/12/28 04:23:39;;;;;;;32.88;12.90;;;4.70;99.90;;;;;;4995496;28;20514;-72
2022/12/28 04:26:07;;;;;;;28.80;12.15;;;4.80;99.90;;;;;;4994255;28;20079;-72
2022/12/28 04:28:33;;;;;;;37.88;13.05;;;4.80;99.90;;;;;;4999441;28;20077;-72
2022/12/28 04:31:00;;;;;;;29.00;12.63;;;4.80;99.90;;;;;;4993900;28;20030;-73
2022/12/28 04:33:26;;;;;;;26.52;13.40;;;4.70;99.90;;;;;;4995087;28;20482;-72
2022/12/28 04:35:52;;;;;;;21.55;12.95;;;4.80;99.90;;;;;;4994868;28;20018;-72
2022/12/28 04:38:18;;;;;;;23.67;13.00;;;4.70;99.90;;;;;;4995113;28;20033;-72
2022/12/28 04:40:44;;;;;;;25.63;13.15;;;4.80;99.90;;;;;;5011333;28;20030;-72
2022/12/28 04:43:09;;;;;;;20.33;13.70;;;4.80;99.90;;;;;;4998142;28;20037;-72
2022/12/28 04:45:35;;;;;;;27.40;13.63;;;4.80;99.90;;;;;;4994604;28;20030;-72
2022/12/28 04:48:00;;;;;;;24.05;13.57;;;4.80;99.90;;;;;;4995934;28;20108;-72
2022/12/28 04:50:26;;;;;;;20.85;13.40;;;4.80;99.90;;;;;;4994659;28;20410;-72
2022/12/28 04:52:52;;;;;;;27.95;12.98;;;4.80;99.90;;;;;;4993958;28;20018;-72
2022/12/28 04:55:17;;;;;;;23.45;11.95;;;4.80;99.90;;;;;;4993418;28;20037;-72
2022/12/28 04:57:44;;;;;;;24.75;13.65;;;4.80;99.90;;;;;;4994494;28;20030;-72
2022/12/28 05:00:11;;;;;;;24.95;13.15;;;4.80;99.90;;;;;;4994166;28;20023;-71
2022/12/28 05:02:36;;;;;;;39.75;13.40;;;4.90;99.90;;;;;;4994492;28;20037;-72
2022/12/28 05:05:02;;;;;;;24.83;12.93;;;4.90;99.90;;;;;;5004254;23;20042;-72
2022/12/28 05:07:28;;;;;;;25.02;12.40;;;4.90;99.90;;;;;;5013946;28;20081;-72
2022/12/28 05:09:53;;;;;;;28.70;12.23;;;4.90;99.90;;;;;;5010116;28;20397;-72
2022/12/28 05:12:19;;;;;;;25.48;12.00;;;4.90;99.90;;;;;;5013989;28;20061;-72
2022/12/28 05:14:45;;;;;;;21.73;11.57;;;4.90;99.90;;;;;;5012920;28;20105;-72
2022/12/28 05:17:11;;;;;;;30.42;11.50;;;4.90;99.90;;;;;;5013888;28;20057;-72
2022/12/28 05:19:36;;;;;;;25.63;14.50;;;5.00;99.90;;;;;;4996541;28;20050;-72
2022/12/28 05:22:02;;;;;;;26.73;11.98;;;5.00;99.90;;;;;;5001304;28;20037;-72
2022/12/28 05:24:31;;;;;;;23.63;12.60;;;5.00;99.90;;;;;;5008057;28;20030;-72
2022/12/28 05:26:56;;;;;;;22.00;12.02;;;5.00;99.90;;;;;;5011481;28;20030;-72
2022/12/28 05:29:22;;;;;;;24.92;13.02;;;5.00;99.90;;;;;;5012483;28;20096;-72
2022/12/28 05:31:47;;;;;;;32.45;13.50;;;5.10;99.90;;;;;;5003865;28;20054;-72
2022/12/28 05:34:13;;;;;;;31.65;13.88;;;5.10;99.90;;;;;;5005450;28;20083;-72
2022/12/28 05:36:38;;;;;;;22.25;12.55;;;5.00;99.90;;;;;;5002822;28;20247;-72
2022/12/28 05:39:04;;;;;;;26.38;13.98;;;5.10;99.90;;;;;;4998733;28;20069;-72
2022/12/28 05:41:30;;;;;;;23.40;13.73;;;5.10;99.90;;;;;;5009134;28;20045;-72
2022/12/28 05:43:57;;;;;;;25.63;13.32;;;5.10;99.90;;;;;;5001736;28;20034;-72
2022/12/28 05:46:31;;;;;;;24.40;12.48;;;5.20;99.90;;;;;;5008505;28;20026;-73
2022/12/28 05:48:57;;;;;;;27.38;13.13;;;5.20;99.90;;;;;;5009253;28;20022;-73
2022/12/28 05:51:26;;;;;;;28.77;14.43;;;5.10;99.90;;;;;;5025501;28;20022;-72
2022/12/28 05:53:52;;;;;;;27.38;14.15;;;5.10;99.90;;;;;;5010427;28;20033;-72
2022/12/28 05:56:23;;;;;;;30.08;13.98;;;5.10;99.90;;;;;;4999692;28;20018;-72
2022/12/28 05:58:54;;;;;;;28.42;13.68;;;5.20;99.90;;;;;;5015726;28;20036;-72
2022/12/28 06:01:22;;;;;;;30.92;13.50;;;5.20;99.90;;;;;;5011761;28;20038;-72
2022/12/28 06:03:53;;;;;;;26.38;13.68;;;5.20;99.90;;;;;;5015915;28;20370;-72
2022/12/28 06:06:19;;;;;;;32.25;13.82;;;5.20;99.90;;;;;;5015708;28;20038;-73
2022/12/28 06:08:46;;;;;;;39.22;14.63;;;5.20;99.90;;;;;;5015608;28;20033;-72
2022/12/28 06:11:15;;;;;;;30.63;14.02;;;5.20;99.90;;;;;;5016621;28;20430;-72
2022/12/28 06:13:41;;;;;;;34.78;13.05;;;5.20;99.90;;;;;;5016507;28;20025;-72
2022/12/28 06:16:10;;;;;;;42.35;14.38;;;5.20;99.90;;;;;;5016454;28;20504;-72
2022/12/28 06:18:36;;;;;;;44.20;13.10;;;5.20;99.90;;;;;;5015389;28;20090;-72
2022/12/28 06:21:07;;;;;;;25.13;12.18;;;5.30;99.90;;;;;;5010240;28;20052;-72
2022/12/28 06:23:33;;;;;;;28.13;13.45;;;5.20;99.90;;;;;;5016419;28;20105;-73
2022/12/28 06:26:00;;;;;;;26.58;13.23;;;5.20;99.90;;;;;;5016721;28;20114;-72
2022/12/28 06:28:26;;;;;;;36.95;13.60;;;5.20;99.90;;;;;;5015052;28;20022;-72
2022/12/28 06:31:20;;;;;;;32.90;13.20;;;5.20;99.90;;;;;;5016335;28;20430;-72
2022/12/28 06:33:47;;;;;;;30.27;13.73;;;5.30;99.90;;;;;;5015683;28;20110;-73
2022/12/28 06:36:14;;;;;;;29.27;15.00;;;5.20;99.90;;;;;;5014113;28;20655;-72
2022/12/28 06:38:40;;;;;;;32.25;14.73;;;5.30;99.90;;;;;;5015945;28;20053;-72
2022/12/28 06:41:07;;;;;;;33.90;15.65;;;5.30;99.90;;;;;;5016009;28;20034;-72
2022/12/28 06:43:37;;;;;;;31.45;13.60;;;5.30;99.90;;;;;;5016491;28;20034;-72
2022/12/28 06:46:03;;;;;;;25.15;14.07;;;5.30;99.90;;;;;;5014444;28;20036;-73
2022/12/28 06:48:30;;;;;;;35.33;13.80;;;5.30;99.90;;;;;;5016931;28;20393;-72
2022/12/28 06:50:59;;;;;;;38.63;13.90;;;5.40;99.90;;;;;;5012998;28;20473;-72
2022/12/28 06:53:30;;;;;;;33.30;14.20;;;5.40;99.90;;;;;;4996922;28;20058;-72
2022/12/28 06:55:58;;;;;;;24.58;13.73;;;5.40;99.90;;;;;;5012256;28;20429;-72
2022/12/28 06:58:25;;;;;;;35.65;15.48;;;5.40;99.90;;;;;;5015251;28;20081;-72
2022/12/28 07:00:51;;;;;;;30.90;14.00;;;5.50;99.90;;;;;;5015412;28;20559;-72
2022/12/28 07:03:17;;;;;;;30.48;14.65;;;5.50;99.90;;;;;;5016440;28;20025;-72
2022/12/28 07:05:43;;;;;;;34.22;13.00;;;5.50;99.90;;;;;;5021271;23;20041;-72
2022/12/28 07:08:08;;;;;;;28.63;13.82;;;5.50;99.90;;;;;;5016758;28;20470;-71
2022/12/28 07:10:35;;;;;;;37.20;13.80;;;5.50;99.90;;;;;;5016226;28;20154;-72
2022/12/28 07:13:01;;;;;;;33.00;12.48;;;5.60;99.90;;;;;;5014852;28;20116;-72
2022/12/28 07:15:26;;;;;;;22.10;11.35;;;5.60;99.90;;;;;;5016085;28;20528;-72
2022/12/28 07:17:51;;;;;;;30.00;13.13;;;5.70;99.90;;;;;;5014482;28;20064;-72
2022/12/28 07:20:17;;;;;;;37.05;13.05;;;5.70;99.90;;;;;;5013210;28;20133;-72
2022/12/28 07:22:43;;;;;;;29.05;13.85;;;5.70;99.90;;;;;;5016711;28;20040;-71
2022/12/28 07:25:08;;;;;;;24.90;12.98;;;5.70;99.90;;;;;;5014953;28;20116;-71
2022/12/28 07:27:37;;;;;;;40.50;13.68;;;5.70;99.90;;;;;;5015170;28;20030;-72
2022/12/28 07:30:03;;;;;;;39.60;14.25;;;5.70;99.90;;;;;;5011217;28;20029;-72
2022/12/28 07:32:29;;;;;;;28.98;12.82;;;5.80;99.90;;;;;;5004686;28;20021;-72
2022/12/28 07:34:54;;;;;;;30.20;13.30;;;5.80;99.90;;;;;;5014267;28;20033;-72
2022/12/28 07:37:20;;;;;;;34.75;12.63;;;5.80;99.90;;;;;;5010238;28;20030;-71
2022/12/28 07:39:45;;;;;;;34.92;12.00;;;5.80;99.90;;;;;;5014737;28;20029;-71
2022/12/28 07:42:11;;;;;;;38.25;11.43;;;5.90;99.90;;;;;;5015932;28;20084;-72
2022/12/28 07:44:40;;;;;;;19.83;9.30;;;5.90;99.90;;;;;;5013195;28;20030;-71
2022/12/28 07:47:06;;;;;;;23.38;10.25;;;5.90;99.90;;;;;;5014651;28;20030;-72
2022/12/28 07:49:31;;;;;;;21.75;9.93;;;5.90;99.90;;;;;;5028309;28;20080;-71
2022/12/28 07:51:57;;;;;;;15.40;9.77;;;5.90;99.90;;;;;;5015332;28;20026;-72
2022/12/28 07:54:23;;;;;;;24.45;10.48;;;5.90;99.90;;;;;;5010841;28;20052;-72
2022/12/28 07:56:48;;;;;;;24.33;10.82;;;6.00;99.90;;;;;;5008837;28;20034;-71
2022/12/28 07:59:14;;;;;;;25.30;9.95;;;6.00;99.90;;;;;;5010419;28;20037;-73
2022/12/28 08:01:39;;;;;;;17.63;10.05;;;6.00;99.90;;;;;;5009198;28;20037;-72
2022/12/28 08:04:14;;;;;;;24.60;11.25;;;6.00;99.90;;;;;;5011867;28;20390;-73
2022/12/28 08:06:44;;;;;;;26.50;10.95;;;6.00;99.90;;;;;;5006295;28;20038;-73
2022/12/28 08:09:12;;;;;;;25.05;9.75;;;6.10;99.90;;;;;;5009365;28;20069;-73
2022/12/28 08:11:40;;;;;;;22.88;10.55;;;6.10;99.90;;;;;;5010876;28;20057;-73
2022/12/28 08:14:07;;;;;;;22.73;10.65;;;6.20;99.90;;;;;;5012806;28;20022;-73
2022/12/28 08:16:38;;;;;;;25.17;9.32;;;6.20;99.90;;;;;;5012778;28;20018;-75
2022/12/28 08:19:05;;;;;;;22.10;9.82;;;6.30;99.90;;;;;;5012429;28;20026;-73
2022/12/28 08:21:34;;;;;;;15.20;8.25;;;6.30;99.90;;;;;;5013456;28;20034;-74
2022/12/28 08:24:01;;;;;;;23.65;8.95;;;6.40;99.90;;;;;;5010290;28;20145;-74
2022/12/28 08:26:32;;;;;;;26.48;8.57;;;6.40;99.90;;;;;;5012655;28;20500;-73
2022/12/28 08:29:00;;;;;;;19.30;8.23;;;6.40;99.90;;;;;;5009545;28;20077;-73
2022/12/28 08:31:29;;;;;;;17.63;8.93;;;6.50;99.90;;;;;;5001939;28;20022;-73
2022/12/28 08:33:56;;;;;;;22.63;9.50;;;6.50;99.90;;;;;;5012491;28;20050;-73
2022/12/28 08:36:22;;;;;;;26.92;9.30;;;6.50;99.90;;;;;;5010336;28;20028;-72
2022/12/28 08:38:47;;;;;;;25.73;9.50;;;6.50;99.90;;;;;;5010541;28;20105;-73
2022/12/28 08:41:18;;;;;;;31.00;11.38;;;6.50;99.90;;;;;;5009055;28;20048;-73
2022/12/28 08:43:45;;;;;;;19.20;11.40;;;6.60;99.90;;;;;;5012581;28;20072;-72
2022/12/28 08:46:15;;;;;;;33.85;10.85;;;6.60;99.90;;;;;;5012165;28;20041;-73
2022/12/28 08:48:41;;;;;;;27.88;11.63;;;6.60;99.90;;;;;;5012064;28;20021;-72
2022/12/28 08:51:16;;;;;;;29.65;13.05;;;6.70;99.90;;;;;;5011908;28;20105;-73
2022/12/28 08:53:41;;;;;;;29.10;13.02;;;6.70;99.90;;;;;;5011221;28;20049;-73
2022/12/28 08:56:10;;;;;;;33.78;11.57;;;6.70;99.90;;;;;;5011563;28;20022;-73
2022/12/28 08:58:36;;;;;;;33.95;11.25;;;6.70;99.90;;;;;;5010951;28;20066;-73
2022/12/28 09:01:10;;;;;;;28.25;10.65;;;6.70;99.90;;;;;;5010325;28;20030;-73
2022/12/28 09:03:41;;;;;;;23.73;10.52;;;6.80;99.90;;;;;;5010332;28;21062;-74
2022/12/28 09:06:09;;;;;;;27.73;11.77;;;6.80;99.90;;;;;;5011698;28;20074;-73
2022/12/28 09:08:35;;;;;;;27.90;11.68;;;6.80;99.90;;;;;;5007690;28;20421;-73
2022/12/28 09:11:06;;;;;;;34.08;10.63;;;6.80;99.90;;;;;;5011068;28;20037;-74
2022/12/28 09:13:32;;;;;;;29.35;10.15;;;6.80;99.90;;;;;;5011900;28;20125;-74
2022/12/28 09:16:01;;;;;;;26.67;10.23;;;6.80;99.90;;;;;;5011172;28;20096;-73
2022/12/28 09:18:27;;;;;;;32.58;12.30;;;6.80;99.90;;;;;;5008650;28;20030;-76
2022/12/28 09:20:53;;;;;;;35.70;11.38;;;6.80;99.90;;;;;;5015412;23;20113;-69
2022/12/28 09:23:18;;;;;;;39.05;12.07;;;6.80;99.90;;;;;;4987708;28;20112;-68
2022/12/28 09:25:44;;;;;;;33.45;11.15;;;6.80;99.90;;;;;;4991796;28;20105;-69
2022/12/28 09:28:09;;;;;;;33.25;12.13;;;6.80;99.90;;;;;;4990123;28;20083;-69
2022/12/28 09:30:35;;;;;;;34.83;11.82;;;6.80;99.90;;;;;;4993175;28;20025;-68
2022/12/28 09:35:45;;;;;;;43.47;11.52;;;6.80;99.90;;;;;;4988270;28;20033;-68
2022/12/28 09:38:10;;;;;;;36.72;12.98;;;6.80;99.90;;;;;;4995677;28;20034;-68
2022/12/28 09:40:37;;;;;;;57.78;13.10;;;6.70;99.90;;;;;;4994235;28;20543;-68
2022/12/28 09:43:07;;;;;;;36.05;11.07;;;6.70;99.90;;;;;;4995949;28;20058;-68
2022/12/28 09:45:33;;;;;;;49.10;12.85;;;6.70;99.90;;;;;;4985003;28;20110;-69
2022/12/28 09:48:09;;;;;;;42.15;14.90;;;6.70;99.90;;;;;;4984678;28;20113;-68
2022/12/28 09:50:34;;;;;;;46.80;13.35;;;6.80;99.90;;;;;;4991510;28;20022;-69
2022/12/28 09:53:23;;;;;;;52.38;13.73;;;6.80;99.90;;;;;;4993806;28;20390;-69
2022/12/28 09:56:25;;;;;;;44.63;12.85;;;6.80;99.90;;;;;;4992604;28;20105;-69
2022/12/28 09:58:52;;;;;;;55.97;12.45;;;6.90;99.90;;;;;;4991157;28;20478;-69
2022/12/28 10:01:19;;;;;;;44.58;12.98;;;6.80;99.90;;;;;;4992081;28;20540;-69
2022/12/28 10:03:46;;;;;;;40.67;13.10;;;6.80;99.90;;;;;;4994644;28;20035;-69
2022/12/28 10:06:20;;;;;;;54.53;13.60;;;6.80;99.90;;;;;;4981874;28;20034;-69
2022/12/28 10:08:49;;;;;;;44.90;13.77;;;6.90;99.90;;;;;;4993468;28;20033;-69
2022/12/28 10:11:18;;;;;;;62.75;15.65;;;6.90;99.90;;;;;;4992130;28;20053;-69
2022/12/28 10:13:44;;;;;;;43.28;14.52;;;6.90;99.90;;;;;;4987159;28;20044;-69
2022/12/28 10:16:17;;;;;;;61.30;15.55;;;6.90;99.90;;;;;;4995203;28;20393;-69
2022/12/28 10:18:43;;;;;;;49.85;12.77;;;6.90;99.90;;;;;;4994323;28;20030;-69
2022/12/28 10:21:10;;;;;;;36.25;12.93;;;6.90;99.90;;;;;;4994466;28;20073;-70
2022/12/28 10:23:43;;;;;;;58.30;15.13;;;6.90;99.90;;;;;;4993066;28;20505;-69
2022/12/28 10:26:14;;;;;;;47.78;12.57;;;6.90;99.90;;;;;;4993356;28;20101;-69
2022/12/28 10:28:47;;;;;;;52.92;11.85;;;7.00;99.90;;;;;;4992926;28;20125;-69
2022/12/28 10:31:15;;;;;;;54.97;12.63;;;7.00;99.90;;;;;;4994093;28;20022;-69
2022/12/28 10:33:50;;;;;;;45.00;11.40;;;7.10;99.90;;;;;;4990381;28;20394;-69
2022/12/28 10:36:17;;;;;;;49.55;12.38;;;7.10;99.90;;;;;;4993898;28;20022;-69
2022/12/28 10:38:49;;;;;;;48.63;10.70;;;7.10;99.90;;;;;;4999634;28;20057;-69
2022/12/28 10:41:17;;;;;;;38.90;10.63;;;7.20;99.90;;;;;;4990290;28;20041;-69
2022/12/28 10:43:48;;;;;;;35.28;9.55;;;7.10;99.90;;;;;;4992731;28;20022;-69
2022/12/28 10:46:19;;;;;;;45.83;9.90;;;7.20;99.90;;;;;;4984109;28;20054;-69
2022/12/28 10:48:50;;;;;;;50.00;10.88;;;7.20;99.90;;;;;;4995651;28;20042;-70
2022/12/28 10:51:18;;;;;;;50.60;8.68;;;7.20;99.90;;;;;;4993328;28;20050;-69
2022/12/28 10:53:46;;;;;;;47.67;8.50;;;7.20;99.90;;;;;;4994055;28;20054;-70
2022/12/28 10:56:12;;;;;;;55.58;9.07;;;7.30;99.90;;;;;;4995537;28;20545;-70
2022/12/28 10:58:39;;;;;;;48.42;9.70;;;7.20;99.90;;;;;;4995839;28;20019;-69
2022/12/28 11:01:26;;;;;;;46.08;8.32;;;7.20;99.90;;;;;;4991408;28;20029;-70
2022/12/28 11:03:55;;;;;;;49.40;7.88;;;7.20;99.90;;;;;;4995837;28;20498;-72
2022/12/28 11:06:23;;;;;;;51.45;8.55;;;7.20;99.90;;;;;;4994478;28;20022;-70
2022/12/28 11:09:00;;;;;;;51.53;8.63;;;7.20;99.90;;;;;;4995663;28;20028;-70
2022/12/28 11:11:25;;;;;;;37.45;6.30;;;7.30;99.90;;;;;;4992907;28;20026;-69
2022/12/28 11:14:14;;;;;;;40.72;6.53;;;7.30;99.90;;;;;;4994613;28;20544;-70
2022/12/28 11:16:41;;;;;;;45.95;5.88;;;7.30;99.90;;;;;;4973854;28;20030;-69
2022/12/28 11:19:06;;;;;;;47.33;6.10;;;7.30;99.90;;;;;;4992257;28;20026;-70
2022/12/28 11:21:34;;;;;;;56.47;6.18;;;7.20;99.90;;;;;;4991350;28;20049;-70
2022/12/28 11:24:00;;;;;;;37.22;5.15;;;7.20;99.90;;;;;;4986477;28;20041;-69
2022/12/28 11:26:27;;;;;;;51.22;6.47;;;7.20;99.90;;;;;;4985754;28;20107;-70
2022/12/28 11:28:54;;;;;;;40.78;5.18;;;7.30;99.90;;;;;;4981404;28;20030;-69
2022/12/28 11:31:32;;;;;;;60.60;5.75;;;7.30;99.90;;;;;;4993567;28;20532;-70
2022/12/28 11:34:03;;;;;;;27.00;5.65;;;7.30;99.90;;;;;;4992068;28;20034;-69
2022/12/28 11:36:30;;;;;;;46.53;5.75;;;7.20;99.90;;;;;;4992048;28;20490;-69
2022/12/28 11:38:57;;;;;;;48.13;6.05;;;7.20;99.90;;;;;;4990730;28;21196;-69
2022/12/28 11:41:22;;;;;;;53.42;7.10;;;7.20;99.90;;;;;;4985742;28;20030;-69
2022/12/28 11:43:50;;;;;;;51.70;6.88;;;7.20;99.90;;;;;;4991029;28;20038;-69
2022/12/28 11:46:21;;;;;;;39.22;6.35;;;7.20;99.90;;;;;;4991531;28;20030;-69
2022/12/28 11:48:58;;;;;;;54.33;6.60;;;7.20;99.90;;;;;;4992988;28;20487;-69
2022/12/28 11:51:34;;;;;;;31.98;5.20;;;7.30;99.90;;;;;;4989718;28;20109;-70
2022/12/28 11:54:24;;;;;;;55.28;6.35;;;7.30;99.90;;;;;;4994983;28;20023;-70
2022/12/28 11:56:49;;;;;;;35.65;5.07;;;7.40;99.90;;;;;;4994556;28;20109;-69
2022/12/28 11:59:28;;;;;;;25.52;4.68;;;7.40;99.90;;;;;;4995182;28;20430;-69
2022/12/28 12:02:17;;;;;;;52.92;6.10;;;7.30;99.90;;;;;;4992181;28;20026;-69
2022/12/28 12:04:45;;;;;;;34.20;5.97;;;7.40;99.90;;;;;;4988707;28;20042;-69
2022/12/28 12:07:19;;;;;;;31.42;4.07;;;7.40;99.90;;;;;;4993724;28;20033;-69
2022/12/28 12:09:47;;;;;;;40.35;4.60;;;7.40;99.90;;;;;;4994191;28;20055;-69
2022/12/28 12:12:12;;;;;;;44.35;6.07;;;7.30;99.90;;;;;;4995078;28;20381;-69
2022/12/28 12:14:41;;;;;;;29.27;5.28;;;7.30;99.90;;;;;;4994866;28;20022;-69
2022/12/28 12:17:18;;;;;;;30.35;4.78;;;7.30;99.90;;;;;;4993735;28;20386;-69
2022/12/28 12:19:57;;;;;;;23.23;4.85;;;7.30;99.90;;;;;;4993639;28;20076;-69
2022/12/28 12:22:45;;;;;;;33.25;4.78;;;7.40;99.90;;;;;;4994008;28;20498;-69
2022/12/28 12:25:36;;;;;;;36.08;4.32;;;7.50;99.90;;;;;;4994774;28;20026;-69
2022/12/28 12:28:26;;;;;;;24.02;4.40;;;7.60;99.90;;;;;;4994161;28;20057;-71
2022/12/28 12:30:53;;;;;;;42.88;6.07;;;7.70;99.90;;;;;;4993232;28;20104;-69
2022/12/28 12:33:25;;;;;;;28.40;3.55;;;7.70;99.90;;;;;;4995102;28;20023;-69
2022/12/28 12:36:14;;;;;;;32.35;5.38;;;7.80;99.90;;;;;;4994875;28;20117;-69
2022/12/28 12:39:19;;;;;;;41.22;4.68;;;7.80;99.90;;;;;;4993664;28;20026;-69
2022/12/28 12:42:10;;;;;;;34.05;4.93;;;7.80;99.90;;;;;;4994458;28;20101;-69
2022/12/28 12:45:04;;;;;;;39.80;5.90;;;7.80;99.90;;;;;;4994983;28;20106;-69
2022/12/28 12:47:45;;;;;;;47.45;6.85;;;7.60;99.90;;;;;;4992458;28;20034;-69
2022/12/28 12:50:42;;;;;;;30.80;4.32;;;7.50;99.90;;;;;;4990802;28;20026;-69
2022/12/28 12:53:42;;;;;;;35.33;4.55;;;7.40;99.90;;;;;;4975171;28;20102;-69
2022/12/28 12:56:17;;;;;;;53.20;6.65;;;7.40;99.90;;;;;;4980235;28;20018;-69
2022/12/28 12:59:03;;;;;;;36.40;4.15;;;7.50;99.90;;;;;;4994503;28;20022;-69
2022/12/28 13:01:40;;;;;;;40.97;5.75;;;7.50;99.90;;;;;;4994105;28;20030;-69
2022/12/28 13:04:12;;;;;;;47.75;6.40;;;7.50;99.90;;;;;;4994691;28;20030;-69
2022/12/28 13:06:38;;;;;;;51.75;6.30;;;7.50;99.90;;;;;;4993297;28;20041;-69
2022/12/28 13:09:07;;;;;;;47.05;6.85;;;7.40;99.90;;;;;;4994224;28;20105;-69
2022/12/28 13:11:36;;;;;;;42.30;5.82;;;7.40;99.90;;;;;;4993805;28;20486;-69
2022/12/28 13:14:02;;;;;;;48.10;6.50;;;7.30;99.90;;;;;;4994009;28;20385;-69
2022/12/28 13:16:29;;;;;;;46.28;5.82;;;7.30;99.90;;;;;;4993398;28;20113;-69
2022/12/28 13:19:16;;;;;;;36.03;5.55;;;7.30;99.90;;;;;;4994230;28;20030;-69
2022/12/28 13:21:45;;;;;;;58.00;9.35;;;7.20;99.90;;;;;;4993767;28;20065;-69
2022/12/28 13:24:29;;;;;;;45.22;6.47;;;7.30;99.90;;;;;;4993896;28;20441;-69